sensor_id;sensor_type;location;lat;lon;timestamp;P1;durP1;ratioP1;P2;durP2;ratioP2
59408;SDS011;45213;32.654;-115.458;2022-08-19T00:00:25;4.85;;;1.60;;
59408;SDS011;45213;32.654;-115.458;2022-08-19T00:02:53;6.15;;;1.80;;
59408;SDS011;45213;32.654;-115.458;2022-08-19T00:05:20;6.53;;;2.30;;
59408;SDS011;45213;32.654;-115.458;2022-08-19T00:07:47;7.53;;;2.10;;
59408;SDS011;45213;32.654;-115.458;2022-08-19T00:10:15;8.93;;;2.50;;
59408;SDS011;45213;32.654;-115.458;2022-08-19T00:12:43;5.45;;;2.10;;
59408;SDS011;45213;32.654;-115.458;2022-08-19T00:15:16;7.47;;;1.80;;
59408;SDS011;45213;32.654;-115.458;2022-08-19T00:17:48;9.45;;;2.38;;
59408;SDS011;45213;32.654;-115.458;2022-08-19T00:20:17;9.57;;;2.38;;
59408;SDS011;45213;32.654;-115.458;2022-08-19T00:22:45;6.00;;;1.80;;
59408;SDS011;45213;32.654;-115.458;2022-08-19T00:25:13;6.32;;;2.20;;
59408;SDS011;45213;32.654;-115.458;2022-08-19T00:27:42;7.93;;;1.90;;
59408;SDS011;45213;32.654;-115.458;2022-08-19T00:30:12;5.28;;;1.65;;
59408;SDS011;45213;32.654;-115.458;2022-08-19T00:32:39;5.88;;;1.52;;
59408;SDS011;45213;32.654;-115.458;2022-08-19T00:35:06;5.85;;;2.10;;
59408;SDS011;45213;32.654;-115.458;2022-08-19T00:37:33;5.25;;;1.77;;
59408;SDS011;45213;32.654;-115.458;2022-08-19T00:40:03;3.65;;;1.73;;
59408;SDS011;45213;32.654;-115.458;2022-08-19T00:42:31;11.38;;;2.40;;
59408;SDS011;45213;32.654;-115.458;2022-08-19T00:44:58;2.70;;;1.83;;
59408;SDS011;45213;32.654;-115.458;2022-08-19T00:47:24;4.30;;;1.88;;
59408;SDS011;45213;32.654;-115.458;2022-08-19T00:49:52;5.20;;;2.20;;
59408;SDS011;45213;32.654;-115.458;2022-08-19T00:54:58;10.32;;;2.40;;
59408;SDS011;45213;32.654;-115.458;2022-08-19T00:57:30;5.47;;;1.73;;
59408;SDS011;45213;32.654;-115.458;2022-08-19T01:00:01;3.65;;;2.22;;
59408;SDS011;45213;32.654;-115.458;2022-08-19T01:02:31;8.30;;;2.47;;
59408;SDS011;45213;32.654;-115.458;2022-08-19T01:04:59;6.75;;;2.17;;
59408;SDS011;45213;32.654;-115.458;2022-08-19T01:07:28;10.18;;;2.17;;
59408;SDS011;45213;32.654;-115.458;2022-08-19T01:09:55;6.88;;;1.92;;
59408;SDS011;45213;32.654;-115.458;2022-08-19T01:12:22;5.78;;;1.88;;
59408;SDS011;45213;32.654;-115.458;2022-08-19T01:14:49;7.00;;;2.17;;
59408;SDS011;45213;32.654;-115.458;2022-08-19T01:17:18;7.18;;;2.13;;
59408;SDS011;45213;32.654;-115.458;2022-08-19T01:19:45;7.63;;;1.75;;
59408;SDS011;45213;32.654;-115.458;2022-08-19T01:24:50;15.70;;;2.42;;
59408;SDS011;45213;32.654;-115.458;2022-08-19T01:27:17;7.60;;;2.25;;
59408;SDS011;45213;32.654;-115.458;2022-08-19T01:29:44;9.07;;;2.53;;
59408;SDS011;45213;32.654;-115.458;2022-08-19T01:32:13;11.77;;;2.50;;
59408;SDS011;45213;32.654;-115.458;2022-08-19T01:37:13;10.00;;;2.70;;
59408;SDS011;45213;32.654;-115.458;2022-08-19T01:39:40;6.40;;;2.00;;
59408;SDS011;45213;32.654;-115.458;2022-08-19T01:42:08;8.55;;;2.03;;
59408;SDS011;45213;32.654;-115.458;2022-08-19T01:47:07;6.65;;;2.58;;
59408;SDS011;45213;32.654;-115.458;2022-08-19T01:49:40;8.13;;;2.13;;
59408;SDS011;45213;32.654;-115.458;2022-08-19T01:52:06;9.48;;;2.20;;
59408;SDS011;45213;32.654;-115.458;2022-08-19T01:54:33;6.78;;;1.92;;
59408;SDS011;45213;32.654;-115.458;2022-08-19T01:57:05;6.97;;;2.30;;
59408;SDS011;45213;32.654;-115.458;2022-08-19T01:59:34;7.43;;;2.00;;
59408;SDS011;45213;32.654;-115.458;2022-08-19T02:02:04;12.23;;;2.40;;
59408;SDS011;45213;32.654;-115.458;2022-08-19T02:04:34;8.10;;;2.10;;
59408;SDS011;45213;32.654;-115.458;2022-08-19T02:07:04;6.43;;;2.00;;
59408;SDS011;45213;32.654;-115.458;2022-08-19T02:09:33;9.30;;;2.78;;
59408;SDS011;45213;32.654;-115.458;2022-08-19T02:12:00;8.15;;;2.50;;
59408;SDS011;45213;32.654;-115.458;2022-08-19T02:14:30;9.68;;;2.30;;
59408;SDS011;45213;32.654;-115.458;2022-08-19T02:16:59;10.18;;;2.40;;
59408;SDS011;45213;32.654;-115.458;2022-08-19T02:19:25;10.52;;;2.33;;
59408;SDS011;45213;32.654;-115.458;2022-08-19T02:21:53;7.13;;;2.22;;
59408;SDS011;45213;32.654;-115.458;2022-08-19T02:24:19;9.88;;;2.47;;
59408;SDS011;45213;32.654;-115.458;2022-08-19T02:26:46;6.10;;;2.00;;
59408;SDS011;45213;32.654;-115.458;2022-08-19T02:29:13;6.85;;;2.38;;
59408;SDS011;45213;32.654;-115.458;2022-08-19T02:31:39;6.93;;;2.30;;
59408;SDS011;45213;32.654;-115.458;2022-08-19T02:34:06;6.03;;;2.38;;
59408;SDS011;45213;32.654;-115.458;2022-08-19T02:36:33;10.52;;;2.75;;
59408;SDS011;45213;32.654;-115.458;2022-08-19T02:38:59;12.65;;;2.75;;
59408;SDS011;45213;32.654;-115.458;2022-08-19T02:41:28;6.72;;;2.13;;
59408;SDS011;45213;32.654;-115.458;2022-08-19T02:46:25;7.82;;;2.30;;
59408;SDS011;45213;32.654;-115.458;2022-08-19T02:48:56;10.27;;;2.65;;
59408;SDS011;45213;32.654;-115.458;2022-08-19T02:51:27;12.70;;;2.67;;
59408;SDS011;45213;32.654;-115.458;2022-08-19T02:53:58;8.82;;;2.22;;
59408;SDS011;45213;32.654;-115.458;2022-08-19T02:56:26;8.85;;;2.15;;
59408;SDS011;45213;32.654;-115.458;2022-08-19T02:58:53;10.52;;;2.30;;
59408;SDS011;45213;32.654;-115.458;2022-08-19T03:03:55;6.43;;;2.65;;
59408;SDS011;45213;32.654;-115.458;2022-08-19T03:06:22;9.70;;;2.20;;
59408;SDS011;45213;32.654;-115.458;2022-08-19T03:08:49;8.32;;;2.35;;
59408;SDS011;45213;32.654;-115.458;2022-08-19T03:11:17;10.98;;;2.80;;
59408;SDS011;45213;32.654;-115.458;2022-08-19T03:13:45;10.05;;;2.25;;
59408;SDS011;45213;32.654;-115.458;2022-08-19T03:16:14;6.88;;;1.92;;
59408;SDS011;45213;32.654;-115.458;2022-08-19T03:18:42;7.32;;;2.10;;
59408;SDS011;45213;32.654;-115.458;2022-08-19T03:21:09;8.70;;;1.42;;
59408;SDS011;45213;32.654;-115.458;2022-08-19T03:23:40;9.27;;;1.63;;
59408;SDS011;45213;32.654;-115.458;2022-08-19T03:26:06;6.70;;;1.77;;
59408;SDS011;45213;32.654;-115.458;2022-08-19T03:28:33;7.97;;;1.55;;
59408;SDS011;45213;32.654;-115.458;2022-08-19T03:31:01;6.05;;;1.63;;
59408;SDS011;45213;32.654;-115.458;2022-08-19T03:33:30;6.25;;;1.80;;
59408;SDS011;45213;32.654;-115.458;2022-08-19T03:36:06;4.68;;;1.70;;
59408;SDS011;45213;32.654;-115.458;2022-08-19T03:38:45;9.77;;;2.25;;
59408;SDS011;45213;32.654;-115.458;2022-08-19T03:41:15;8.95;;;2.38;;
59408;SDS011;45213;32.654;-115.458;2022-08-19T03:43:43;3.42;;;1.80;;
59408;SDS011;45213;32.654;-115.458;2022-08-19T03:48:42;4.00;;;1.35;;
59408;SDS011;45213;32.654;-115.458;2022-08-19T03:51:17;6.55;;;1.38;;
59408;SDS011;45213;32.654;-115.458;2022-08-19T03:53:46;3.50;;;1.40;;
59408;SDS011;45213;32.654;-115.458;2022-08-19T03:56:13;10.10;;;1.60;;
59408;SDS011;45213;32.654;-115.458;2022-08-19T03:58:40;4.88;;;1.40;;
59408;SDS011;45213;32.654;-115.458;2022-08-19T04:01:08;6.43;;;1.58;;
59408;SDS011;45213;32.654;-115.458;2022-08-19T04:03:39;4.57;;;1.58;;
59408;SDS011;45213;32.654;-115.458;2022-08-19T04:08:44;9.27;;;1.77;;
59408;SDS011;45213;32.654;-115.458;2022-08-19T04:11:13;6.03;;;2.00;;
59408;SDS011;45213;32.654;-115.458;2022-08-19T04:13:46;2.85;;;1.20;;
59408;SDS011;45213;32.654;-115.458;2022-08-19T04:16:12;8.10;;;1.45;;
59408;SDS011;45213;32.654;-115.458;2022-08-19T04:18:41;7.40;;;1.60;;
59408;SDS011;45213;32.654;-115.458;2022-08-19T04:21:20;6.10;;;2.00;;
59408;SDS011;45213;32.654;-115.458;2022-08-19T04:23:49;5.30;;;1.65;;
59408;SDS011;45213;32.654;-115.458;2022-08-19T04:26:18;5.80;;;1.83;;
59408;SDS011;45213;32.654;-115.458;2022-08-19T04:28:49;5.45;;;1.70;;
59408;SDS011;45213;32.654;-115.458;2022-08-19T04:31:21;5.32;;;1.75;;
59408;SDS011;45213;32.654;-115.458;2022-08-19T04:33:53;5.75;;;1.80;;
59408;SDS011;45213;32.654;-115.458;2022-08-19T04:36:23;7.10;;;2.00;;
59408;SDS011;45213;32.654;-115.458;2022-08-19T04:39:03;4.38;;;2.10;;
59408;SDS011;45213;32.654;-115.458;2022-08-19T04:41:33;5.28;;;1.73;;
59408;SDS011;45213;32.654;-115.458;2022-08-19T04:44:17;10.27;;;2.20;;
59408;SDS011;45213;32.654;-115.458;2022-08-19T04:46:45;6.40;;;1.60;;
59408;SDS011;45213;32.654;-115.458;2022-08-19T04:49:14;4.82;;;1.95;;
59408;SDS011;45213;32.654;-115.458;2022-08-19T04:51:43;11.75;;;1.95;;
59408;SDS011;45213;32.654;-115.458;2022-08-19T04:54:13;6.88;;;1.60;;
59408;SDS011;45213;32.654;-115.458;2022-08-19T04:56:40;5.60;;;1.60;;
59408;SDS011;45213;32.654;-115.458;2022-08-19T04:59:07;5.95;;;1.80;;
59408;SDS011;45213;32.654;-115.458;2022-08-19T05:01:34;8.07;;;2.10;;
59408;SDS011;45213;32.654;-115.458;2022-08-19T05:04:05;4.15;;;1.90;;
59408;SDS011;45213;32.654;-115.458;2022-08-19T05:06:33;2.88;;;1.92;;
59408;SDS011;45213;32.654;-115.458;2022-08-19T05:09:02;7.85;;;2.00;;
59408;SDS011;45213;32.654;-115.458;2022-08-19T05:11:32;5.47;;;2.05;;
59408;SDS011;45213;32.654;-115.458;2022-08-19T05:14:07;5.85;;;1.75;;
59408;SDS011;45213;32.654;-115.458;2022-08-19T05:16:35;9.95;;;2.15;;
59408;SDS011;45213;32.654;-115.458;2022-08-19T05:19:01;8.85;;;2.00;;
59408;SDS011;45213;32.654;-115.458;2022-08-19T05:21:46;4.60;;;2.05;;
59408;SDS011;45213;32.654;-115.458;2022-08-19T05:24:31;10.13;;;2.58;;
59408;SDS011;45213;32.654;-115.458;2022-08-19T05:26:59;11.57;;;2.83;;
59408;SDS011;45213;32.654;-115.458;2022-08-19T05:29:29;9.60;;;3.55;;
59408;SDS011;45213;32.654;-115.458;2022-08-19T05:31:57;12.15;;;4.93;;
59408;SDS011;45213;32.654;-115.458;2022-08-19T05:34:25;12.52;;;4.00;;
59408;SDS011;45213;32.654;-115.458;2022-08-19T05:36:58;11.77;;;3.88;;
59408;SDS011;45213;32.654;-115.458;2022-08-19T05:39:27;14.75;;;3.65;;
59408;SDS011;45213;32.654;-115.458;2022-08-19T05:41:56;14.02;;;3.95;;
59408;SDS011;45213;32.654;-115.458;2022-08-19T05:44:25;16.38;;;4.07;;
59408;SDS011;45213;32.654;-115.458;2022-08-19T05:46:56;13.15;;;3.88;;
59408;SDS011;45213;32.654;-115.458;2022-08-19T05:49:23;15.38;;;4.05;;
59408;SDS011;45213;32.654;-115.458;2022-08-19T05:51:51;7.95;;;3.15;;
59408;SDS011;45213;32.654;-115.458;2022-08-19T05:54:17;14.43;;;3.13;;
59408;SDS011;45213;32.654;-115.458;2022-08-19T05:56:45;12.52;;;3.70;;
59408;SDS011;45213;32.654;-115.458;2022-08-19T05:59:13;6.82;;;2.58;;
59408;SDS011;45213;32.654;-115.458;2022-08-19T06:01:43;7.47;;;2.50;;
59408;SDS011;45213;32.654;-115.458;2022-08-19T06:04:13;9.98;;;2.38;;
59408;SDS011;45213;32.654;-115.458;2022-08-19T06:06:40;12.38;;;2.38;;
59408;SDS011;45213;32.654;-115.458;2022-08-19T06:09:07;6.15;;;1.95;;
59408;SDS011;45213;32.654;-115.458;2022-08-19T06:14:11;15.43;;;3.13;;
59408;SDS011;45213;32.654;-115.458;2022-08-19T06:16:41;66.20;;;5.43;;
59408;SDS011;45213;32.654;-115.458;2022-08-19T06:19:12;45.45;;;5.05;;
59408;SDS011;45213;32.654;-115.458;2022-08-19T06:21:42;49.85;;;5.00;;
59408;SDS011;45213;32.654;-115.458;2022-08-19T06:24:12;42.17;;;5.57;;
59408;SDS011;45213;32.654;-115.458;2022-08-19T06:26:42;47.42;;;5.47;;
59408;SDS011;45213;32.654;-115.458;2022-08-19T06:29:11;35.10;;;4.72;;
59408;SDS011;45213;32.654;-115.458;2022-08-19T06:31:41;41.75;;;5.88;;
59408;SDS011;45213;32.654;-115.458;2022-08-19T06:34:09;47.05;;;4.82;;
59408;SDS011;45213;32.654;-115.458;2022-08-19T06:36:37;56.28;;;5.10;;
59408;SDS011;45213;32.654;-115.458;2022-08-19T06:39:14;65.38;;;5.70;;
59408;SDS011;45213;32.654;-115.458;2022-08-19T06:41:45;94.15;;;7.75;;
59408;SDS011;45213;32.654;-115.458;2022-08-19T06:44:18;195.02;;;19.52;;
59408;SDS011;45213;32.654;-115.458;2022-08-19T06:46:47;278.88;;;23.45;;
59408;SDS011;45213;32.654;-115.458;2022-08-19T06:49:15;308.83;;;28.65;;
59408;SDS011;45213;32.654;-115.458;2022-08-19T06:51:44;311.42;;;29.55;;
59408;SDS011;45213;32.654;-115.458;2022-08-19T06:54:16;292.33;;;25.48;;
59408;SDS011;45213;32.654;-115.458;2022-08-19T06:56:43;253.23;;;24.02;;
59408;SDS011;45213;32.654;-115.458;2022-08-19T06:59:13;265.00;;;24.90;;
59408;SDS011;45213;32.654;-115.458;2022-08-19T07:01:47;294.02;;;27.77;;
59408;SDS011;45213;32.654;-115.458;2022-08-19T07:04:18;283.48;;;26.70;;
59408;SDS011;45213;32.654;-115.458;2022-08-19T07:06:46;155.93;;;15.13;;
59408;SDS011;45213;32.654;-115.458;2022-08-19T07:09:14;127.00;;;11.80;;
59408;SDS011;45213;32.654;-115.458;2022-08-19T07:11:45;93.85;;;8.95;;
59408;SDS011;45213;32.654;-115.458;2022-08-19T07:14:17;65.63;;;6.20;;
59408;SDS011;45213;32.654;-115.458;2022-08-19T07:16:47;71.10;;;6.82;;
59408;SDS011;45213;32.654;-115.458;2022-08-19T07:19:15;68.38;;;5.57;;
59408;SDS011;45213;32.654;-115.458;2022-08-19T07:21:43;48.35;;;4.72;;
59408;SDS011;45213;32.654;-115.458;2022-08-19T07:24:09;65.97;;;5.55;;
59408;SDS011;45213;32.654;-115.458;2022-08-19T07:26:42;58.35;;;5.47;;
59408;SDS011;45213;32.654;-115.458;2022-08-19T07:29:10;81.05;;;6.80;;
59408;SDS011;45213;32.654;-115.458;2022-08-19T07:31:39;61.75;;;5.55;;
59408;SDS011;45213;32.654;-115.458;2022-08-19T07:34:07;57.08;;;5.22;;
59408;SDS011;45213;32.654;-115.458;2022-08-19T07:36:39;72.60;;;5.10;;
59408;SDS011;45213;32.654;-115.458;2022-08-19T07:39:08;42.72;;;3.45;;
59408;SDS011;45213;32.654;-115.458;2022-08-19T07:41:41;33.65;;;2.90;;
59408;SDS011;45213;32.654;-115.458;2022-08-19T07:44:08;20.30;;;2.65;;
59408;SDS011;45213;32.654;-115.458;2022-08-19T07:46:37;19.10;;;2.20;;
59408;SDS011;45213;32.654;-115.458;2022-08-19T07:49:09;21.15;;;1.70;;
59408;SDS011;45213;32.654;-115.458;2022-08-19T07:51:46;13.60;;;1.70;;
59408;SDS011;45213;32.654;-115.458;2022-08-19T07:54:20;23.77;;;2.38;;
59408;SDS011;45213;32.654;-115.458;2022-08-19T07:56:48;10.27;;;1.67;;
59408;SDS011;45213;32.654;-115.458;2022-08-19T07:59:16;16.63;;;2.22;;
59408;SDS011;45213;32.654;-115.458;2022-08-19T08:01:45;7.43;;;1.00;;
59408;SDS011;45213;32.654;-115.458;2022-08-19T08:04:11;11.77;;;1.30;;
59408;SDS011;45213;32.654;-115.458;2022-08-19T08:06:56;9.07;;;1.20;;
59408;SDS011;45213;32.654;-115.458;2022-08-19T08:09:42;16.80;;;1.42;;
59408;SDS011;45213;32.654;-115.458;2022-08-19T08:12:14;11.25;;;1.02;;
59408;SDS011;45213;32.654;-115.458;2022-08-19T08:14:44;7.85;;;1.45;;
59408;SDS011;45213;32.654;-115.458;2022-08-19T08:17:14;5.63;;;1.27;;
59408;SDS011;45213;32.654;-115.458;2022-08-19T08:19:43;11.43;;;1.85;;
59408;SDS011;45213;32.654;-115.458;2022-08-19T08:22:13;10.38;;;1.27;;
59408;SDS011;45213;32.654;-115.458;2022-08-19T08:25:05;9.15;;;1.40;;
59408;SDS011;45213;32.654;-115.458;2022-08-19T08:27:37;5.43;;;1.25;;
59408;SDS011;45213;32.654;-115.458;2022-08-19T08:30:07;14.30;;;2.03;;
59408;SDS011;45213;32.654;-115.458;2022-08-19T08:32:36;12.27;;;1.52;;
59408;SDS011;45213;32.654;-115.458;2022-08-19T08:35:04;9.88;;;1.73;;
59408;SDS011;45213;32.654;-115.458;2022-08-19T08:37:33;10.20;;;1.50;;
59408;SDS011;45213;32.654;-115.458;2022-08-19T08:40:02;12.55;;;2.00;;
59408;SDS011;45213;32.654;-115.458;2022-08-19T08:43:27;11.98;;;1.52;;
59408;SDS011;45213;32.654;-115.458;2022-08-19T08:46:04;9.70;;;2.38;;
59408;SDS011;45213;32.654;-115.458;2022-08-19T08:48:42;10.68;;;1.70;;
59408;SDS011;45213;32.654;-115.458;2022-08-19T08:51:34;13.07;;;1.60;;
59408;SDS011;45213;32.654;-115.458;2022-08-19T08:56:32;12.60;;;2.45;;
59408;SDS011;45213;32.654;-115.458;2022-08-19T08:59:02;12.75;;;2.17;;
59408;SDS011;45213;32.654;-115.458;2022-08-19T09:01:34;16.83;;;2.30;;
59408;SDS011;45213;32.654;-115.458;2022-08-19T09:04:05;13.82;;;1.90;;
59408;SDS011;45213;32.654;-115.458;2022-08-19T09:09:17;16.15;;;2.80;;
59408;SDS011;45213;32.654;-115.458;2022-08-19T09:12:04;19.63;;;2.42;;
59408;SDS011;45213;32.654;-115.458;2022-08-19T09:14:46;14.90;;;2.15;;
59408;SDS011;45213;32.654;-115.458;2022-08-19T09:17:23;24.48;;;2.80;;
59408;SDS011;45213;32.654;-115.458;2022-08-19T09:20:03;20.35;;;3.03;;
59408;SDS011;45213;32.654;-115.458;2022-08-19T09:22:39;23.35;;;3.50;;
59408;SDS011;45213;32.654;-115.458;2022-08-19T09:25:12;14.60;;;3.03;;
59408;SDS011;45213;32.654;-115.458;2022-08-19T09:27:41;19.10;;;3.03;;
59408;SDS011;45213;32.654;-115.458;2022-08-19T09:30:09;18.05;;;2.78;;
59408;SDS011;45213;32.654;-115.458;2022-08-19T09:32:44;22.25;;;3.85;;
59408;SDS011;45213;32.654;-115.458;2022-08-19T09:35:11;30.92;;;3.17;;
59408;SDS011;45213;32.654;-115.458;2022-08-19T09:37:39;18.98;;;2.90;;
59408;SDS011;45213;32.654;-115.458;2022-08-19T09:40:06;13.35;;;2.42;;
59408;SDS011;45213;32.654;-115.458;2022-08-19T09:42:33;14.27;;;2.65;;
59408;SDS011;45213;32.654;-115.458;2022-08-19T09:45:00;16.67;;;3.13;;
59408;SDS011;45213;32.654;-115.458;2022-08-19T09:47:29;25.77;;;3.05;;
59408;SDS011;45213;32.654;-115.458;2022-08-19T09:49:55;14.45;;;2.88;;
59408;SDS011;45213;32.654;-115.458;2022-08-19T09:52:23;17.45;;;2.60;;
59408;SDS011;45213;32.654;-115.458;2022-08-19T09:54:54;27.33;;;3.08;;
59408;SDS011;45213;32.654;-115.458;2022-08-19T09:57:20;25.55;;;2.65;;
59408;SDS011;45213;32.654;-115.458;2022-08-19T09:59:47;14.20;;;2.15;;
59408;SDS011;45213;32.654;-115.458;2022-08-19T10:02:14;15.48;;;2.20;;
59408;SDS011;45213;32.654;-115.458;2022-08-19T10:04:41;16.40;;;1.77;;
59408;SDS011;45213;32.654;-115.458;2022-08-19T10:07:26;14.45;;;2.45;;
59408;SDS011;45213;32.654;-115.458;2022-08-19T10:09:56;21.77;;;3.13;;
59408;SDS011;45213;32.654;-115.458;2022-08-19T10:12:23;16.55;;;2.65;;
59408;SDS011;45213;32.654;-115.458;2022-08-19T10:14:49;19.23;;;1.92;;
59408;SDS011;45213;32.654;-115.458;2022-08-19T10:17:19;20.65;;;2.70;;
59408;SDS011;45213;32.654;-115.458;2022-08-19T10:19:45;15.45;;;2.30;;
59408;SDS011;45213;32.654;-115.458;2022-08-19T10:22:13;12.20;;;1.70;;
59408;SDS011;45213;32.654;-115.458;2022-08-19T10:24:40;12.73;;;2.20;;
59408;SDS011;45213;32.654;-115.458;2022-08-19T10:27:07;16.70;;;2.03;;
59408;SDS011;45213;32.654;-115.458;2022-08-19T10:29:35;20.50;;;2.75;;
59408;SDS011;45213;32.654;-115.458;2022-08-19T10:32:03;17.65;;;2.08;;
59408;SDS011;45213;32.654;-115.458;2022-08-19T10:34:33;17.30;;;1.90;;
59408;SDS011;45213;32.654;-115.458;2022-08-19T10:37:02;18.30;;;2.58;;
59408;SDS011;45213;32.654;-115.458;2022-08-19T10:39:31;17.27;;;2.13;;
59408;SDS011;45213;32.654;-115.458;2022-08-19T10:42:04;18.70;;;2.80;;
59408;SDS011;45213;32.654;-115.458;2022-08-19T10:44:36;21.38;;;3.28;;
59408;SDS011;45213;32.654;-115.458;2022-08-19T10:47:03;16.17;;;1.92;;
59408;SDS011;45213;32.654;-115.458;2022-08-19T10:49:30;19.88;;;2.20;;
59408;SDS011;45213;32.654;-115.458;2022-08-19T10:52:00;10.00;;;1.90;;
59408;SDS011;45213;32.654;-115.458;2022-08-19T10:54:47;13.80;;;2.28;;
59408;SDS011;45213;32.654;-115.458;2022-08-19T10:57:32;12.65;;;1.98;;
59408;SDS011;45213;32.654;-115.458;2022-08-19T10:59:59;17.85;;;2.25;;
59408;SDS011;45213;32.654;-115.458;2022-08-19T11:02:25;15.38;;;2.20;;
59408;SDS011;45213;32.654;-115.458;2022-08-19T11:04:52;15.80;;;2.47;;
59408;SDS011;45213;32.654;-115.458;2022-08-19T11:07:19;20.38;;;2.63;;
59408;SDS011;45213;32.654;-115.458;2022-08-19T11:09:46;19.63;;;3.13;;
59408;SDS011;45213;32.654;-115.458;2022-08-19T11:12:13;24.60;;;3.35;;
59408;SDS011;45213;32.654;-115.458;2022-08-19T11:14:40;21.08;;;3.35;;
59408;SDS011;45213;32.654;-115.458;2022-08-19T11:17:07;23.77;;;2.88;;
59408;SDS011;45213;32.654;-115.458;2022-08-19T11:19:34;20.65;;;2.67;;
59408;SDS011;45213;32.654;-115.458;2022-08-19T11:22:01;22.40;;;3.83;;
59408;SDS011;45213;32.654;-115.458;2022-08-19T11:24:30;27.63;;;3.67;;
59408;SDS011;45213;32.654;-115.458;2022-08-19T11:27:07;21.77;;;3.22;;
59408;SDS011;45213;32.654;-115.458;2022-08-19T11:29:36;21.52;;;2.78;;
59408;SDS011;45213;32.654;-115.458;2022-08-19T11:32:05;18.25;;;2.28;;
59408;SDS011;45213;32.654;-115.458;2022-08-19T11:34:35;20.73;;;2.38;;
59408;SDS011;45213;32.654;-115.458;2022-08-19T11:37:03;25.65;;;3.13;;
59408;SDS011;45213;32.654;-115.458;2022-08-19T11:39:33;15.98;;;2.10;;
59408;SDS011;45213;32.654;-115.458;2022-08-19T11:42:02;20.73;;;2.70;;
59408;SDS011;45213;32.654;-115.458;2022-08-19T11:44:51;22.90;;;2.10;;
59408;SDS011;45213;32.654;-115.458;2022-08-19T11:47:18;14.00;;;1.90;;
59408;SDS011;45213;32.654;-115.458;2022-08-19T11:49:46;15.10;;;2.00;;
59408;SDS011;45213;32.654;-115.458;2022-08-19T11:52:13;18.20;;;2.35;;
59408;SDS011;45213;32.654;-115.458;2022-08-19T11:54:40;15.95;;;2.60;;
59408;SDS011;45213;32.654;-115.458;2022-08-19T11:57:10;18.92;;;2.38;;
59408;SDS011;45213;32.654;-115.458;2022-08-19T11:59:36;17.13;;;1.75;;
59408;SDS011;45213;32.654;-115.458;2022-08-19T12:02:03;15.50;;;2.85;;
59408;SDS011;45213;32.654;-115.458;2022-08-19T12:04:30;14.68;;;2.17;;
59408;SDS011;45213;32.654;-115.458;2022-08-19T12:06:56;19.35;;;2.25;;
59408;SDS011;45213;32.654;-115.458;2022-08-19T12:09:23;15.02;;;2.30;;
59408;SDS011;45213;32.654;-115.458;2022-08-19T12:11:49;18.58;;;2.13;;
59408;SDS011;45213;32.654;-115.458;2022-08-19T12:14:16;15.25;;;3.03;;
59408;SDS011;45213;32.654;-115.458;2022-08-19T12:16:44;11.48;;;2.00;;
59408;SDS011;45213;32.654;-115.458;2022-08-19T12:19:12;17.48;;;1.85;;
59408;SDS011;45213;32.654;-115.458;2022-08-19T12:21:38;19.67;;;1.88;;
59408;SDS011;45213;32.654;-115.458;2022-08-19T12:24:06;16.70;;;2.22;;
59408;SDS011;45213;32.654;-115.458;2022-08-19T12:26:33;15.85;;;1.90;;
59408;SDS011;45213;32.654;-115.458;2022-08-19T12:29:00;16.23;;;2.00;;
59408;SDS011;45213;32.654;-115.458;2022-08-19T12:31:27;17.30;;;2.10;;
59408;SDS011;45213;32.654;-115.458;2022-08-19T12:33:54;27.05;;;2.80;;
59408;SDS011;45213;32.654;-115.458;2022-08-19T12:36:21;12.18;;;1.63;;
59408;SDS011;45213;32.654;-115.458;2022-08-19T12:38:49;14.88;;;1.83;;
59408;SDS011;45213;32.654;-115.458;2022-08-19T12:41:16;18.25;;;2.80;;
59408;SDS011;45213;32.654;-115.458;2022-08-19T12:43:44;16.25;;;3.28;;
59408;SDS011;45213;32.654;-115.458;2022-08-19T12:46:11;13.52;;;2.05;;
59408;SDS011;45213;32.654;-115.458;2022-08-19T12:48:38;15.30;;;2.33;;
59408;SDS011;45213;32.654;-115.458;2022-08-19T12:51:09;15.03;;;1.60;;
59408;SDS011;45213;32.654;-115.458;2022-08-19T12:53:42;16.20;;;2.28;;
59408;SDS011;45213;32.654;-115.458;2022-08-19T12:56:10;12.50;;;2.38;;
59408;SDS011;45213;32.654;-115.458;2022-08-19T12:58:38;19.98;;;2.20;;
59408;SDS011;45213;32.654;-115.458;2022-08-19T13:01:08;16.23;;;1.75;;
59408;SDS011;45213;32.654;-115.458;2022-08-19T13:03:36;14.93;;;1.98;;
59408;SDS011;45213;32.654;-115.458;2022-08-19T13:06:02;14.18;;;2.00;;
59408;SDS011;45213;32.654;-115.458;2022-08-19T13:08:29;12.68;;;2.70;;
59408;SDS011;45213;32.654;-115.458;2022-08-19T13:10:56;14.98;;;1.70;;
59408;SDS011;45213;32.654;-115.458;2022-08-19T13:13:26;13.10;;;1.65;;
59408;SDS011;45213;32.654;-115.458;2022-08-19T13:15:59;16.50;;;1.75;;
59408;SDS011;45213;32.654;-115.458;2022-08-19T13:18:28;13.63;;;1.83;;
59408;SDS011;45213;32.654;-115.458;2022-08-19T13:20:55;13.27;;;2.50;;
59408;SDS011;45213;32.654;-115.458;2022-08-19T13:23:22;14.38;;;1.63;;
59408;SDS011;45213;32.654;-115.458;2022-08-19T13:25:55;11.80;;;2.33;;
59408;SDS011;45213;32.654;-115.458;2022-08-19T13:28:23;9.77;;;1.40;;
59408;SDS011;45213;32.654;-115.458;2022-08-19T13:30:50;13.10;;;2.25;;
59408;SDS011;45213;32.654;-115.458;2022-08-19T13:33:35;16.45;;;1.90;;
59408;SDS011;45213;32.654;-115.458;2022-08-19T13:36:02;8.75;;;1.52;;
59408;SDS011;45213;32.654;-115.458;2022-08-19T13:41:04;8.93;;;1.42;;
59408;SDS011;45213;32.654;-115.458;2022-08-19T13:43:32;7.17;;;1.70;;
59408;SDS011;45213;32.654;-115.458;2022-08-19T13:45:58;7.97;;;1.35;;
59408;SDS011;45213;32.654;-115.458;2022-08-19T13:48:26;13.68;;;1.83;;
59408;SDS011;45213;32.654;-115.458;2022-08-19T13:50:52;10.32;;;1.58;;
59408;SDS011;45213;32.654;-115.458;2022-08-19T13:53:19;13.07;;;1.90;;
59408;SDS011;45213;32.654;-115.458;2022-08-19T13:55:46;6.78;;;1.92;;
59408;SDS011;45213;32.654;-115.458;2022-08-19T13:58:13;5.00;;;1.33;;
59408;SDS011;45213;32.654;-115.458;2022-08-19T14:00:41;5.90;;;1.23;;
59408;SDS011;45213;32.654;-115.458;2022-08-19T14:03:09;8.13;;;1.38;;
59408;SDS011;45213;32.654;-115.458;2022-08-19T14:05:36;4.57;;;1.50;;
59408;SDS011;45213;32.654;-115.458;2022-08-19T14:08:04;11.27;;;1.70;;
59408;SDS011;45213;32.654;-115.458;2022-08-19T14:10:31;8.57;;;1.70;;
59408;SDS011;45213;32.654;-115.458;2022-08-19T14:12:59;5.20;;;1.77;;
59408;SDS011;45213;32.654;-115.458;2022-08-19T14:15:28;13.02;;;1.83;;
59408;SDS011;45213;32.654;-115.458;2022-08-19T14:17:54;8.60;;;1.45;;
59408;SDS011;45213;32.654;-115.458;2022-08-19T14:20:22;8.77;;;1.42;;
59408;SDS011;45213;32.654;-115.458;2022-08-19T14:22:49;13.02;;;1.40;;
59408;SDS011;45213;32.654;-115.458;2022-08-19T14:25:18;6.75;;;1.00;;
59408;SDS011;45213;32.654;-115.458;2022-08-19T14:27:46;13.77;;;1.42;;
59408;SDS011;45213;32.654;-115.458;2022-08-19T14:30:15;8.35;;;1.40;;
59408;SDS011;45213;32.654;-115.458;2022-08-19T14:32:44;7.07;;;1.42;;
59408;SDS011;45213;32.654;-115.458;2022-08-19T14:35:12;5.97;;;1.38;;
59408;SDS011;45213;32.654;-115.458;2022-08-19T14:37:40;10.63;;;1.90;;
59408;SDS011;45213;32.654;-115.458;2022-08-19T14:40:09;10.07;;;2.63;;
59408;SDS011;45213;32.654;-115.458;2022-08-19T14:42:38;14.45;;;2.00;;
59408;SDS011;45213;32.654;-115.458;2022-08-19T14:45:05;5.05;;;1.92;;